Time;durP1;ratioP1;P1;durP2;ratioP2;P2;SDS_P1;SDS_P2;PMS_P1;PMS_P2;Temp;Humidity;BMP_temperature;BMP_pressure;BME280_temperature;BME280_humidity;BME280_pressure;Samples;Min_cycle;Max_cycle;Signal;HPM_P1;HPM_P2
2020/12/04 00:02:03;;;;;;;23.27;14.30;;;;;;;-144.99;90.04;52529.63;5069182;28;20650;-68
2020/12/04 00:04:29;;;;;;;18.93;14.43;;;;;;;-144.99;90.11;52547.97;5062771;28;20615;-68
2020/12/04 00:06:55;;;;;;;21.57;14.57;;;;;;;-144.99;89.97;52558.16;5068984;28;20742;-69
2020/12/04 00:09:22;;;;;;;23.23;15.70;;;;;;;-144.99;89.77;52541.84;5069612;28;20726;-68
2020/12/04 00:11:48;;;;;;;20.73;13.87;;;;;;;-144.99;89.88;52517.41;5069108;28;20700;-69
2020/12/04 00:14:15;;;;;;;23.73;16.33;;;;;;;-144.99;89.60;52503.13;5069876;28;20736;-69
2020/12/04 00:16:41;;;;;;;25.97;15.13;;;;;;;-144.99;89.20;52513.31;5069184;28;21205;-69
2020/12/04 00:19:07;;;;;;;24.57;13.83;;;;;;;-144.99;89.28;52562.25;5069479;28;20717;-69
2020/12/04 00:21:33;;;;;;;26.70;16.70;;;;;;;-144.99;89.14;52533.69;5068844;28;21036;-69
2020/12/04 00:23:59;;;;;;;23.53;14.97;;;;;;;-144.99;89.21;52541.84;5067191;28;20658;-68
2020/12/04 00:26:25;;;;;;;20.50;14.23;;;;;;;-144.99;89.11;52537.78;5069273;28;20946;-68
2020/12/04 00:28:52;;;;;;;18.27;13.83;;;;;;;-144.99;89.20;52545.94;5070918;28;21167;-68
2020/12/04 00:31:18;;;;;;;24.67;14.57;;;;;;;-144.99;89.05;52513.31;5070545;28;20611;-68
2020/12/04 00:33:45;;;;;;;20.43;16.33;;;;;;;-144.99;89.13;52525.56;5070271;28;20670;-69
2020/12/04 00:36:11;;;;;;;21.90;12.93;;;;;;;-144.99;89.23;52525.56;5070951;28;20635;-68
2020/12/04 00:38:37;;;;;;;23.50;14.07;;;;;;;-144.99;89.01;52517.41;5070330;28;20615;-68
2020/12/04 00:41:03;;;;;;;25.30;15.77;;;;;;;-144.99;89.02;52517.41;5069004;28;20607;-69
2020/12/04 00:43:29;;;;;;;25.30;14.63;;;;;;;-144.99;88.90;52562.25;5068941;28;20760;-69
2020/12/04 00:45:56;;;;;;;19.37;13.57;;;;;;;-144.99;88.79;52541.84;5068182;28;20611;-68
2020/12/04 00:48:22;;;;;;;21.70;14.93;;;;;;;-144.99;88.40;52521.47;5069289;28;20642;-68
2020/12/04 00:50:48;;;;;;;22.43;16.67;;;;;;;-144.99;88.53;52550.00;5069258;28;21190;-69
2020/12/04 00:53:15;;;;;;;21.83;14.53;;;;;;;-144.99;88.32;52545.94;5068983;28;20757;-69
2020/12/04 00:55:41;;;;;;;22.43;14.63;;;;;;;-144.99;88.05;52517.41;5068660;28;20718;-70
2020/12/04 00:58:07;;;;;;;17.73;12.93;;;;;;;-144.99;88.00;52525.56;5068527;28;20633;-68
2020/12/04 01:00:33;;;;;;;19.60;13.83;;;;;;;-144.99;87.67;52517.41;5069040;28;20627;-68
2020/12/04 01:03:00;;;;;;;19.33;12.70;;;;;;;-144.99;87.51;52517.41;5069009;28;20753;-69
2020/12/04 01:05:26;;;;;;;21.90;13.73;;;;;;;-144.99;87.63;52517.41;5069595;28;20654;-68
2020/12/04 01:07:52;;;;;;;22.57;14.83;;;;;;;-144.99;87.67;52545.94;5070860;28;20738;-69
2020/12/04 01:10:18;;;;;;;23.90;14.87;;;;;;;-144.99;87.48;52560.19;5071057;28;20607;-68
2020/12/04 01:12:45;;;;;;;22.63;13.07;;;;;;;-144.99;87.31;52515.34;5070167;28;20702;-69
2020/12/04 01:15:11;;;;;;;28.93;15.20;;;;;;;-144.99;87.62;52558.16;5068854;28;21201;-69
2020/12/04 01:17:37;;;;;;;25.37;15.77;;;;;;;-144.99;87.59;52521.47;5069186;28;20622;-68
2020/12/04 01:20:05;;;;;;;27.97;15.50;;;;;;;-144.99;87.25;52554.09;5068601;28;21262;-69
2020/12/04 01:22:31;;;;;;;27.00;13.43;;;;;;;-144.99;87.05;52566.31;5068818;28;20679;-68
2020/12/04 01:24:57;;;;;;;28.53;19.20;;;;;;;-144.99;87.11;52566.31;5068700;28;21236;-68
2020/12/04 01:27:23;;;;;;;25.43;14.13;;;;;;;-144.99;86.98;52519.44;5068945;28;20654;-68
2020/12/04 01:29:49;;;;;;;23.37;14.53;;;;;;;-144.99;87.04;52513.31;5069418;28;20730;-67
2020/12/04 01:32:16;;;;;;;25.37;15.33;;;;;;;-144.99;86.83;52554.09;5072157;28;20742;-67
2020/12/04 01:34:42;;;;;;;24.20;15.13;;;;;;;-144.99;86.88;52541.84;5072119;28;21074;-68
2020/12/04 01:37:09;;;;;;;25.20;13.80;;;;;;;-144.99;86.94;52558.16;5072003;28;21179;-68
2020/12/04 01:39:35;;;;;;;22.33;15.43;;;;;;;-144.99;86.90;52570.38;5071543;28;20649;-67
2020/12/04 01:42:01;;;;;;;24.00;15.40;;;;;;;-144.99;86.72;52558.16;5071580;28;20992;-68
2020/12/04 01:44:27;;;;;;;20.77;13.97;;;;;;;-144.99;86.60;52558.16;5071800;28;20706;-69
2020/12/04 01:46:53;;;;;;;23.50;16.13;;;;;;;-144.99;86.38;52525.56;5072916;28;20642;-69
2020/12/04 01:49:19;;;;;;;27.93;14.03;;;;;;;-144.99;86.51;52519.44;5072389;28;21494;-68
2020/12/04 01:51:47;;;;;;;22.03;15.20;;;;;;;-144.99;86.77;52554.09;5072032;28;20734;-68
2020/12/04 01:54:16;;;;;;;22.43;13.80;;;;;;;-144.99;86.80;52517.41;5071306;28;20651;-67
2020/12/04 01:56:42;;;;;;;24.47;14.00;;;;;;;-144.99;86.47;52515.34;5072134;28;21233;-68
2020/12/04 01:59:08;;;;;;;19.57;14.03;;;;;;;-144.99;86.35;52521.47;5071934;28;21259;-68
2020/12/04 02:01:38;;;;;;;21.83;14.67;;;;;;;-144.99;85.94;52566.31;5072743;28;20702;-67
2020/12/04 02:04:07;;;;;;;19.63;12.97;;;;;;;-144.99;85.77;52554.09;5071584;28;20996;-69
2020/12/04 02:06:40;;;;;;;20.50;13.63;;;;;;;-144.99;85.54;52537.78;5072468;28;20655;-69
2020/12/04 02:09:13;;;;;;;23.27;15.00;;;;;;;-144.99;85.40;52513.31;5071635;28;21174;-70
2020/12/04 02:11:42;;;;;;;21.23;12.87;;;;;;;-144.99;85.39;52523.50;5072277;28;20799;-68
2020/12/04 02:14:09;;;;;;;23.20;14.77;;;;;;;-144.99;85.37;52558.16;5071475;28;21041;-69
2020/12/04 02:16:39;;;;;;;20.60;14.10;;;;;;;-144.99;85.42;52537.78;5072755;28;20618;-68
2020/12/04 02:19:05;;;;;;;21.80;14.87;;;;;;;-144.99;85.55;52509.25;5071854;28;20625;-67
2020/12/04 02:21:34;;;;;;;21.53;14.30;;;;;;;-144.99;85.58;52550.00;5071957;28;20615;-67
2020/12/04 02:24:00;;;;;;;23.30;15.07;;;;;;;-144.99;85.51;52541.84;5069064;28;21239;-67
2020/12/04 02:26:27;;;;;;;23.50;14.17;;;;;;;-144.99;85.59;52541.84;5071642;28;20611;-67
2020/12/04 02:28:54;;;;;;;23.00;14.20;;;;;;;-144.99;85.28;52541.84;5072013;28;20729;-68
2020/12/04 02:31:21;;;;;;;23.80;14.80;;;;;;;-144.99;85.34;52541.84;5070801;28;20669;-67
2020/12/04 02:33:48;;;;;;;25.00;15.17;;;;;;;-144.99;85.38;52529.63;5071596;28;21055;-67
2020/12/04 02:36:14;;;;;;;22.23;15.80;;;;;;;-144.99;85.10;52545.94;5071593;28;20611;-69
2020/12/04 02:38:42;;;;;;;20.47;13.07;;;;;;;-144.99;85.08;52570.38;5071553;28;20706;-69
2020/12/04 02:41:08;;;;;;;24.63;15.20;;;;;;;-144.99;84.94;52558.16;5070260;28;20639;-69
2020/12/04 02:43:34;;;;;;;19.90;14.67;;;;;;;-144.99;84.58;52513.31;5071640;28;20769;-69
2020/12/04 02:46:00;;;;;;;27.23;15.90;;;;;;;-144.99;84.49;52562.25;5070921;28;20619;-69
2020/12/04 02:48:27;;;;;;;22.17;13.03;;;;;;;-144.99;84.74;52576.50;5072126;28;20705;-69
2020/12/04 02:50:53;;;;;;;23.10;15.13;;;;;;;-144.99;84.80;52537.78;5071627;28;20676;-69
2020/12/04 02:53:19;;;;;;;23.77;14.07;;;;;;;-144.99;84.66;52527.59;5071437;28;20766;-68
2020/12/04 02:55:46;;;;;;;24.90;16.13;;;;;;;-144.99;84.40;52603.00;5071662;28;21187;-68
2020/12/04 02:58:12;;;;;;;21.20;14.57;;;;;;;-144.99;84.17;52513.31;5073402;28;21241;-68
2020/12/04 03:00:38;;;;;;;30.07;17.57;;;;;;;-144.99;84.31;52554.09;5081958;28;20633;-68
2020/12/04 03:03:04;;;;;;;25.40;17.60;;;;;;;-144.99;84.29;52556.13;5081248;28;21210;-68
2020/12/04 03:05:31;;;;;;;24.20;13.83;;;;;;;-144.99;84.18;52582.63;5071465;28;20651;-69
2020/12/04 03:07:57;;;;;;;22.37;15.63;;;;;;;-144.99;84.13;52550.00;5071479;28;20650;-67
2020/12/04 03:10:23;;;;;;;23.87;16.37;;;;;;;-144.99;84.35;52566.31;5070623;28;20983;-68
2020/12/04 03:12:50;;;;;;;22.90;15.50;;;;;;;-144.99;84.49;52562.25;5070579;28;20753;-67
2020/12/04 03:15:16;;;;;;;28.33;18.27;;;;;;;-144.99;84.65;52537.78;5070356;28;20655;-68
2020/12/04 03:17:42;;;;;;;24.53;17.47;;;;;;;-144.99;84.22;52492.94;5071224;28;20627;-69
2020/12/04 03:20:08;;;;;;;25.57;16.17;;;;;;;-144.99;84.15;52562.25;5070879;28;20627;-68
2020/12/04 03:22:35;;;;;;;28.47;16.03;;;;;;;-144.99;84.12;52550.00;5071884;28;20890;-69
2020/12/04 03:25:02;;;;;;;34.13;19.23;;;;;;;-144.99;84.18;52556.13;5070865;28;20938;-69
2020/12/04 03:27:28;;;;;;;23.80;16.60;;;;;;;-144.99;84.25;52509.25;5074860;28;20657;-68
2020/12/04 03:29:55;;;;;;;27.80;18.13;;;;;;;-144.99;84.33;52533.69;5077955;28;20694;-66
2020/12/04 03:32:21;;;;;;;25.07;15.70;;;;;;;-144.99;84.41;52582.63;5081005;28;20671;-68
2020/12/04 03:34:47;;;;;;;24.87;16.30;;;;;;;-144.99;84.54;52509.25;5080284;28;21080;-68
2020/12/04 03:37:13;;;;;;;27.93;16.30;;;;;;;-144.99;84.10;52558.16;5078801;28;20642;-68
2020/12/04 03:39:39;;;;;;;27.27;19.43;;;;;;;-144.99;83.92;52550.00;5073610;28;20654;-68
2020/12/04 03:42:05;;;;;;;28.60;15.83;;;;;;;-144.99;84.13;52523.50;5073765;28;20678;-69
2020/12/04 03:44:31;;;;;;;22.50;14.87;;;;;;;-144.99;84.09;52562.25;5073790;28;20705;-69
2020/12/04 03:46:59;;;;;;;27.30;16.47;;;;;;;-144.99;83.99;52545.94;5074496;28;20642;-70
2020/12/04 03:49:25;;;;;;;27.33;17.90;;;;;;;-144.99;83.85;52590.78;5072352;28;20710;-68
2020/12/04 03:51:51;;;;;;;26.67;17.67;;;;;;;-144.99;83.75;52523.50;5082047;28;20649;-69
2020/12/04 03:54:17;;;;;;;28.33;19.53;;;;;;;-144.99;83.98;52566.31;5079407;28;20643;-68
2020/12/04 03:56:43;;;;;;;29.47;17.70;;;;;;;-144.99;83.83;52574.47;5070498;28;20692;-69
2020/12/04 03:59:10;;;;;;;29.93;16.83;;;;;;;-144.99;83.93;52570.38;5069690;28;20654;-68
2020/12/04 04:01:36;;;;;;;25.23;17.20;;;;;;;-144.99;84.21;52564.28;5069453;28;20662;-68
2020/12/04 04:04:03;;;;;;;27.17;18.83;;;;;;;-144.99;84.07;52513.31;5069901;28;20681;-69
2020/12/04 04:06:29;;;;;;;25.00;16.20;;;;;;;-144.99;83.80;52531.66;5069910;28;20646;-69
2020/12/04 04:08:55;;;;;;;27.53;16.63;;;;;;;-144.99;83.88;52521.47;5070392;28;20729;-69
2020/12/04 04:11:21;;;;;;;25.33;18.43;;;;;;;-144.99;83.99;52574.47;5072547;28;20639;-68
2020/12/04 04:13:48;;;;;;;29.70;17.60;;;;;;;-144.99;83.73;52552.03;5074876;28;20662;-69
2020/12/04 04:16:14;;;;;;;30.43;17.60;;;;;;;-144.99;83.80;52541.84;5069569;28;20653;-69
2020/12/04 04:18:40;;;;;;;30.53;18.97;;;;;;;-144.99;83.89;52545.94;5069734;28;20650;-69
2020/12/04 04:21:09;;;;;;;22.57;15.33;;;;;;;-144.99;84.07;52545.94;5069999;28;20725;-69
2020/12/04 04:23:35;;;;;;;27.27;16.77;;;;;;;-144.99;83.88;52556.13;5069333;28;20738;-69
2020/12/04 04:26:01;;;;;;;25.47;14.93;;;;;;;-144.99;83.89;52541.84;5069432;28;21045;-69
2020/12/04 04:28:27;;;;;;;24.60;16.03;;;;;;;-144.99;83.93;52541.84;5069988;28;21254;-69
2020/12/04 04:30:54;;;;;;;21.87;14.77;;;;;;;-144.99;84.14;52509.25;5070125;28;20626;-69
2020/12/04 04:33:20;;;;;;;31.37;19.97;;;;;;;-144.99;84.03;52541.84;5070795;28;20662;-69
2020/12/04 04:35:46;;;;;;;24.90;15.17;;;;;;;-144.99;83.92;52521.47;5071485;28;20661;-69
2020/12/04 04:38:13;;;;;;;28.80;18.33;;;;;;;-144.99;83.76;52541.84;5070825;28;20659;-68
2020/12/04 04:40:39;;;;;;;29.83;15.70;;;;;;;-144.99;83.85;52541.84;5070007;28;21256;-69
2020/12/04 04:43:07;;;;;;;26.33;16.50;;;;;;;-144.99;83.91;52537.78;5069059;28;20681;-69
2020/12/04 04:45:34;;;;;;;22.50;15.60;;;;;;;-144.99;83.91;52533.69;5068874;28;20717;-69
2020/12/04 04:48:05;;;;;;;26.17;15.30;;;;;;;-144.99;83.94;52490.91;5068766;28;20726;-68
2020/12/04 04:50:32;;;;;;;26.63;16.53;;;;;;;-144.99;83.77;52558.16;5069625;28;20630;-68
2020/12/04 04:53:00;;;;;;;20.87;14.63;;;;;;;-144.99;83.96;52545.94;5068915;28;21025;-69
2020/12/04 04:55:27;;;;;;;26.87;17.17;;;;;;;-144.99;84.12;52529.63;5069206;28;20611;-68
2020/12/04 04:57:57;;;;;;;29.27;17.77;;;;;;;-144.99;84.09;52541.84;5070345;28;21258;-68
2020/12/04 05:00:23;;;;;;;26.83;16.53;;;;;;;-144.99;83.78;52556.13;5071667;28;20742;-68
2020/12/04 05:02:50;;;;;;;30.97;16.97;;;;;;;-144.99;83.78;52570.38;5068751;28;20658;-68
2020/12/04 05:05:16;;;;;;;26.03;17.03;;;;;;;-144.99;83.90;52537.78;5071155;28;20743;-68
2020/12/04 05:07:42;;;;;;;27.17;18.30;;;;;;;-144.99;83.96;52554.09;5073327;28;20676;-68
2020/12/04 05:10:10;;;;;;;23.33;14.57;;;;;;;-144.99;84.00;52550.00;5072796;28;20715;-69
2020/12/04 05:12:37;;;;;;;25.07;14.77;;;;;;;-144.99;83.80;52543.91;5072507;28;20685;-69
2020/12/04 05:15:19;;;;;;;28.63;17.60;;;;;;;-144.99;83.78;52533.69;5072430;28;20659;-68
2020/12/04 05:18:05;;;;;;;26.17;16.93;;;;;;;-144.99;83.98;52550.00;5073353;28;21174;-68
2020/12/04 05:20:31;;;;;;;31.60;18.47;;;;;;;-144.99;83.91;52566.31;5072618;28;20613;-68
2020/12/04 05:22:58;;;;;;;27.03;17.57;;;;;;;-144.99;84.02;52550.00;5072274;28;20746;-68
2020/12/04 05:25:25;;;;;;;26.43;14.50;;;;;;;-144.99;83.89;52558.16;5072859;28;20619;-69
2020/12/04 05:27:52;;;;;;;27.80;16.47;;;;;;;-144.99;83.42;52556.13;5073604;28;20607;-69
2020/12/04 05:30:26;;;;;;;29.83;17.67;;;;;;;-144.99;83.36;52529.63;5073443;28;20684;-69
2020/12/04 05:33:00;;;;;;;22.33;14.47;;;;;;;-144.99;83.56;52525.56;5073745;28;21209;-70
2020/12/04 05:35:26;;;;;;;25.20;17.23;;;;;;;-144.99;83.73;52562.25;5073962;28;21031;-68
2020/12/04 05:38:09;;;;;;;22.07;16.30;;;;;;;-144.99;83.66;52537.78;5074002;28;20983;-68
2020/12/04 05:40:35;;;;;;;29.03;16.63;;;;;;;-144.99;83.68;52521.47;5065890;28;20627;-68
2020/12/04 05:43:03;;;;;;;25.67;15.13;;;;;;;-144.99;84.00;52541.84;5072393;28;21030;-68
2020/12/04 05:45:30;;;;;;;28.57;16.53;;;;;;;-144.99;84.08;52541.84;5072452;28;20618;-69
2020/12/04 05:47:57;;;;;;;26.50;18.93;;;;;;;-144.99;84.50;52554.09;5071970;28;20703;-69
2020/12/04 05:50:23;;;;;;;25.30;16.27;;;;;;;-144.99;85.16;52541.84;5072545;28;20673;-69
2020/12/04 05:52:50;;;;;;;23.83;16.60;;;;;;;-144.99;85.72;52537.78;5072229;28;20999;-68
2020/12/04 05:55:16;;;;;;;27.77;18.43;;;;;;;-144.99;86.37;52566.31;5072798;28;20655;-68
2020/12/04 05:57:45;;;;;;;26.33;18.03;;;;;;;-144.99;86.58;52547.97;5072464;28;20729;-68
2020/12/04 06:00:14;;;;;;;23.93;15.37;;;;;;;-144.99;87.35;52586.69;5071301;28;20947;-68
2020/12/04 06:02:40;;;;;;;29.80;16.47;;;;;;;-144.99;86.93;52527.59;5072468;28;20635;-68
2020/12/04 06:05:09;;;;;;;23.50;15.67;;;;;;;-144.99;86.88;52554.09;5072747;28;21051;-68
2020/12/04 06:07:35;;;;;;;23.73;17.63;;;;;;;-144.99;86.66;52533.69;5072596;28;20651;-69
2020/12/04 06:10:02;;;;;;;28.37;18.50;;;;;;;-144.99;87.28;52596.88;5071689;28;20681;-69
2020/12/04 06:12:28;;;;;;;28.47;17.27;;;;;;;-144.99;87.05;52560.19;5072387;28;20622;-69
2020/12/04 06:14:54;;;;;;;26.47;16.33;;;;;;;-144.99;87.28;52562.25;5070885;28;21316;-68
2020/12/04 06:17:29;;;;;;;22.70;14.47;;;;;;;-144.99;87.42;52537.78;5072004;28;20726;-69
2020/12/04 06:19:55;;;;;;;25.37;16.93;;;;;;;-144.99;87.02;52545.94;5071796;28;20884;-69
2020/12/04 06:22:22;;;;;;;27.03;16.20;;;;;;;-144.99;87.58;52509.25;5071916;28;20728;-70
2020/12/04 06:25:02;;;;;;;24.80;16.97;;;;;;;-144.99;87.69;52484.78;5071615;28;20631;-69
2020/12/04 06:27:43;;;;;;;27.17;17.77;;;;;;;-144.99;87.55;52568.34;5066606;28;21257;-69
2020/12/04 06:30:11;;;;;;;36.43;17.43;;;;;;;-144.99;87.26;52529.63;5073481;28;20610;-68
2020/12/04 06:32:41;;;;;;;28.97;18.43;;;;;;;-144.99;87.46;52521.47;5071169;28;21299;-68
2020/12/04 06:35:09;;;;;;;28.07;17.07;;;;;;;-144.99;87.46;52545.94;5071021;28;20704;-68
2020/12/04 06:37:40;;;;;;;33.97;20.60;;;;;;;-144.99;87.90;52550.00;5071588;28;20714;-69
2020/12/04 06:40:27;;;;;;;28.40;19.23;;;;;;;-144.99;87.41;52560.19;5071704;28;20718;-69
2020/12/04 06:42:54;;;;;;;26.73;17.17;;;;;;;-144.99;87.97;52531.66;5071121;28;20737;-70
2020/12/04 06:45:20;;;;;;;28.70;18.70;;;;;;;-144.99;88.12;52554.09;5070781;28;20627;-69
2020/12/04 06:48:11;;;;;;;25.27;15.93;;;;;;;-144.99;88.23;52562.25;5071766;28;20673;-68
2020/12/04 06:50:38;;;;;;;27.07;18.07;;;;;;;-144.99;88.38;52521.47;5066495;28;20651;-68
2020/12/04 06:53:09;;;;;;;28.90;20.23;;;;;;;-144.99;88.42;52570.38;5069711;28;20635;-68
2020/12/04 06:55:36;;;;;;;32.00;18.47;;;;;;;-144.99;88.37;52537.78;5070507;28;20654;-69
2020/12/04 06:58:02;;;;;;;29.07;18.73;;;;;;;-144.99;87.89;52499.06;5070927;28;20676;-69
2020/12/04 07:00:29;;;;;;;30.63;18.63;;;;;;;-144.99;88.20;52558.16;5070044;28;21229;-68
2020/12/04 07:02:56;;;;;;;33.57;19.10;;;;;;;-144.99;88.00;52539.81;5071176;28;20742;-68
2020/12/04 07:05:24;;;;;;;34.77;20.00;;;;;;;-144.99;87.53;52562.25;5072168;28;20627;-69
2020/12/04 07:07:50;;;;;;;26.23;17.03;;;;;;;-144.99;87.55;52582.63;5071237;28;21204;-69
2020/12/04 07:10:16;;;;;;;32.27;20.30;;;;;;;-144.99;87.59;52509.25;5070784;28;20607;-70
2020/12/04 07:12:42;;;;;;;31.03;19.40;;;;;;;-144.99;87.57;52554.09;5073558;28;20745;-70
2020/12/04 07:15:08;;;;;;;31.10;21.30;;;;;;;-144.99;87.49;52529.63;5075851;28;20681;-68
2020/12/04 07:17:35;;;;;;;31.93;19.20;;;;;;;-144.99;87.63;52562.25;5077309;28;20635;-68
2020/12/04 07:20:01;;;;;;;31.00;19.70;;;;;;;-144.99;88.01;52529.63;5073185;28;20738;-69
2020/12/04 07:22:28;;;;;;;30.33;18.50;;;;;;;-144.99;87.84;52550.00;5070983;28;20659;-69
2020/12/04 07:24:56;;;;;;;33.70;20.10;;;;;;;-144.99;88.10;52517.41;5070363;28;20649;-68
2020/12/04 07:27:26;;;;;;;24.53;17.33;;;;;;;-144.99;88.00;52545.94;5069470;28;20621;-69
2020/12/04 07:29:53;;;;;;;27.80;19.27;;;;;;;-144.99;87.95;52529.63;5069922;28;21171;-69
2020/12/04 07:32:21;;;;;;;32.17;19.80;;;;;;;-144.99;87.95;52529.63;5070158;28;20678;-69
2020/12/04 07:34:47;;;;;;;39.13;20.10;;;;;;;-144.99;87.82;52562.25;5070199;28;21210;-70
2020/12/04 07:37:14;;;;;;;27.67;17.33;;;;;;;-144.99;87.42;52545.94;5069886;28;21268;-68
2020/12/04 07:39:42;;;;;;;35.07;20.37;;;;;;;-144.99;87.41;52550.00;5069519;28;20626;-68
2020/12/04 07:42:11;;;;;;;30.77;20.70;;;;;;;-144.99;87.23;52529.63;5069569;28;20662;-68
2020/12/04 07:44:39;;;;;;;32.60;20.47;;;;;;;-144.99;87.34;52529.63;5069557;28;20657;-69
2020/12/04 07:47:07;;;;;;;32.60;21.90;;;;;;;-144.99;87.55;52505.16;5069484;28;20654;-68
2020/12/04 07:49:35;;;;;;;33.80;17.87;;;;;;;-144.99;87.35;52503.13;5069723;28;20619;-68
2020/12/04 07:52:10;;;;;;;34.40;20.53;;;;;;;-144.99;87.24;52562.25;5069334;28;20733;-68
2020/12/04 07:54:36;;;;;;;32.00;19.67;;;;;;;-144.99;87.34;52521.47;5069575;28;20661;-68
2020/12/04 07:57:05;;;;;;;37.67;20.07;;;;;;;-144.99;87.16;52537.78;5069973;28;21011;-68
2020/12/04 07:59:33;;;;;;;31.00;18.33;;;;;;;-144.99;87.33;52578.53;5069930;28;20698;-68
2020/12/04 08:02:00;;;;;;;33.30;19.50;;;;;;;-144.99;87.14;52507.19;5070414;28;20693;-67
2020/12/04 08:04:27;;;;;;;30.47;21.33;;;;;;;-144.99;87.32;52521.47;5069289;28;21108;-70
2020/12/04 08:07:05;;;;;;;28.23;20.87;;;;;;;-144.99;87.27;52505.16;5069469;28;20760;-71
2020/12/04 08:09:38;;;;;;;33.97;18.30;;;;;;;-144.99;87.16;52566.31;5062980;28;20618;-69
2020/12/04 08:12:09;;;;;;;27.63;17.67;;;;;;;-144.99;87.62;52545.94;5069489;28;21016;-69
2020/12/04 08:14:37;;;;;;;31.93;19.53;;;;;;;-144.99;87.44;52554.09;5068676;28;20682;-68
2020/12/04 08:17:05;;;;;;;28.90;20.80;;;;;;;-144.99;87.25;52529.63;5070403;28;21030;-69
2020/12/04 08:19:33;;;;;;;32.07;18.90;;;;;;;-144.99;87.55;52537.78;5069579;28;20619;-69
2020/12/04 08:22:01;;;;;;;31.37;20.80;;;;;;;-144.99;87.25;52550.00;5069129;28;20750;-69
2020/12/04 08:24:29;;;;;;;33.20;19.23;;;;;;;-144.99;87.42;52590.78;5068928;28;20714;-69
2020/12/04 08:27:05;;;;;;;35.00;21.77;;;;;;;-144.99;87.70;52541.84;5069016;28;20623;-69
2020/12/04 08:29:31;;;;;;;29.93;20.87;;;;;;;-144.99;87.38;52497.00;5068575;28;20722;-69
2020/12/04 08:32:21;;;;;;;33.57;19.87;;;;;;;-144.99;87.25;52521.47;5068767;28;20678;-68
2020/12/04 08:34:48;;;;;;;28.13;19.47;;;;;;;-144.99;87.11;52521.47;5052939;28;20751;-69
2020/12/04 08:37:17;;;;;;;35.87;20.73;;;;;;;-144.99;86.90;52545.94;5068531;28;20642;-69
2020/12/04 08:39:46;;;;;;;30.63;18.63;;;;;;;-144.99;87.00;52554.09;5067595;28;20662;-69
2020/12/04 08:42:16;;;;;;;30.37;17.47;;;;;;;-144.99;86.72;52556.13;5069393;28;20651;-70
2020/12/04 08:44:42;;;;;;;38.60;20.63;;;;;;;-144.99;86.88;52558.16;5069430;28;20650;-69
2020/12/04 08:47:09;;;;;;;29.10;18.17;;;;;;;-144.99;86.75;52541.84;5068482;28;20631;-69
2020/12/04 08:49:35;;;;;;;29.27;19.27;;;;;;;-144.99;86.88;52566.31;5069992;28;20688;-69
2020/12/04 08:52:03;;;;;;;33.90;19.83;;;;;;;-144.99;86.84;52545.94;5071619;28;20646;-69
2020/12/04 08:54:29;;;;;;;37.93;20.80;;;;;;;-144.99;86.58;52533.69;5070651;28;20679;-67
2020/12/04 08:56:56;;;;;;;34.87;18.93;;;;;;;-144.99;86.65;52492.94;5071960;28;20722;-66
2020/12/04 08:59:24;;;;;;;30.80;20.03;;;;;;;-144.99;86.76;52525.56;5069076;28;20662;-69
2020/12/04 09:01:51;;;;;;;34.17;21.03;;;;;;;-144.99;86.68;52554.09;5067176;28;21076;-68
2020/12/04 09:04:17;;;;;;;32.30;20.73;;;;;;;-144.99;86.77;52586.69;5062908;28;20977;-68
2020/12/04 09:06:44;;;;;;;32.90;20.47;;;;;;;-144.99;86.65;52523.50;5069600;28;20630;-69
2020/12/04 09:09:10;;;;;;;32.00;19.33;;;;;;;-144.99;86.47;52529.63;5068961;28;20721;-69
2020/12/04 09:11:36;;;;;;;31.70;18.87;;;;;;;-144.99;86.55;52550.00;5068214;28;20718;-68
2020/12/04 09:14:02;;;;;;;29.03;19.23;;;;;;;-144.99;86.39;52564.28;5068399;28;21252;-69
2020/12/04 09:16:29;;;;;;;28.30;19.17;;;;;;;-144.99;86.56;52562.25;4367115;28;10000750;-69
2020/12/04 09:18:55;;;;;;;30.53;18.23;;;;;;;-144.99;86.23;52560.19;5064523;28;20280;-68
2020/12/04 09:21:21;;;;;;;36.07;21.93;;;;;;;-144.99;86.27;52523.50;5062817;28;20614;-69
2020/12/04 09:23:48;;;;;;;28.27;19.27;;;;;;;-144.99;85.93;52529.63;5066234;28;20663;-69
2020/12/04 09:26:14;;;;;;;31.20;18.70;;;;;;;-144.99;86.16;52574.47;5068579;28;20684;-70
2020/12/04 09:28:40;;;;;;;36.90;20.37;;;;;;;-144.99;85.96;52545.94;5083899;28;20626;-70
2020/12/04 09:31:06;;;;;;;33.47;19.23;;;;;;;-144.99;86.21;52582.63;5065352;28;21003;-69
2020/12/04 09:33:33;;;;;;;29.10;18.63;;;;;;;-144.99;86.16;52529.63;5066280;28;21317;-69
2020/12/04 09:35:59;;;;;;;32.20;19.07;;;;;;;-144.99;86.31;52525.56;5068385;28;20639;-71
2020/12/04 09:38:25;;;;;;;25.83;18.30;;;;;;;-144.99;86.86;52515.34;5071842;28;21248;-72
2020/12/04 09:40:52;;;;;;;27.30;18.57;;;;;;;-144.99;86.86;52545.94;5076906;28;20631;-72
2020/12/04 09:43:18;;;;;;;31.43;19.40;;;;;;;-144.99;86.73;52578.53;5068503;28;21242;-72
2020/12/04 09:45:44;;;;;;;26.07;18.07;;;;;;;-144.99;86.40;52550.00;5067797;28;20623;-73
2020/12/04 09:48:10;;;;;;;29.60;17.60;;;;;;;-144.99;86.37;52570.38;5072611;28;20734;-71
2020/12/04 09:50:37;;;;;;;29.70;19.27;;;;;;;-144.99;86.04;52537.78;5069137;28;20657;-72
2020/12/04 09:53:03;;;;;;;24.93;16.90;;;;;;;-144.99;86.15;52570.38;5071914;28;20742;-71
2020/12/04 09:55:30;;;;;;;32.00;19.30;;;;;;;-144.99;86.25;52541.84;5071913;28;20781;-70
2020/12/04 09:57:56;;;;;;;32.00;19.47;;;;;;;-144.99;86.31;52568.34;5075275;28;20672;-73
2020/12/04 10:00:22;;;;;;;28.77;16.67;;;;;;;-144.99;86.22;52525.56;5079371;28;20630;-71
2020/12/04 10:02:48;;;;;;;32.23;20.07;;;;;;;-144.99;85.95;52521.47;5073582;28;20773;-73
2020/12/04 10:05:14;;;;;;;30.37;17.10;;;;;;;-144.99;85.96;52550.00;5067726;28;20721;-72
2020/12/04 10:07:41;;;;;;;27.53;17.00;;;;;;;-144.99;86.04;52529.63;5069971;28;20638;-71
2020/12/04 10:10:07;;;;;;;32.43;20.10;;;;;;;-144.99;85.88;52554.09;5077470;28;20652;-71
2020/12/04 10:12:33;;;;;;;27.73;18.63;;;;;;;-144.99;85.78;52525.56;5084922;28;20699;-72
2020/12/04 10:14:59;;;;;;;27.60;18.07;;;;;;;-144.99;85.98;52501.09;5073891;28;20677;-71
2020/12/04 10:17:25;;;;;;;31.20;21.90;;;;;;;-144.99;85.75;52513.31;5070102;28;20647;-71
2020/12/04 10:19:52;;;;;;;31.63;19.57;;;;;;;-144.99;86.00;52529.63;5066146;28;20797;-72
2020/12/04 10:22:18;;;;;;;33.43;21.47;;;;;;;-144.99;85.95;52505.16;5072205;28;20658;-72
2020/12/04 10:24:45;;;;;;;28.80;20.03;;;;;;;-144.99;86.00;52501.09;5088401;28;21017;-72
2020/12/04 10:27:11;;;;;;;32.53;19.47;;;;;;;-144.99;86.05;52550.00;5092005;28;20652;-71
2020/12/04 10:29:38;;;;;;;28.17;17.80;;;;;;;-144.99;86.09;52541.84;5085422;28;21061;-71
2020/12/04 10:32:04;;;;;;;44.23;21.47;;;;;;;-144.99;86.06;52541.84;5070984;28;20651;-71
2020/12/04 10:34:30;;;;;;;31.47;20.00;;;;;;;-144.99;86.05;52566.31;5071251;28;20785;-70
2020/12/04 10:36:56;;;;;;;33.23;21.70;;;;;;;-144.99;86.14;52545.94;5062388;28;20662;-71
2020/12/04 10:39:22;;;;;;;35.60;22.60;;;;;;;-144.99;86.36;52558.16;5071346;28;21130;-72
2020/12/04 10:41:49;;;;;;;36.47;22.27;;;;;;;-144.99;86.28;52545.94;5066265;28;20741;-72
2020/12/04 10:44:16;;;;;;;36.33;20.77;;;;;;;-144.99;86.37;52558.16;5077364;28;20630;-71
2020/12/04 10:46:42;;;;;;;39.40;24.07;;;;;;;-144.99;86.41;52592.81;5090878;28;20630;-69
2020/12/04 10:49:08;;;;;;;35.97;22.13;;;;;;;-144.99;86.44;52527.59;5080150;28;20626;-71
2020/12/04 10:51:35;;;;;;;32.67;22.07;;;;;;;-144.99;86.51;52484.78;5091056;28;20665;-69
2020/12/04 10:54:01;;;;;;;31.53;21.03;;;;;;;-144.99;86.41;52525.56;5084074;28;20677;-69
2020/12/04 10:56:27;;;;;;;32.70;18.37;;;;;;;-144.99;86.57;52525.56;5071085;28;20650;-71
2020/12/04 10:58:54;;;;;;;38.40;22.43;;;;;;;-144.99;86.49;52497.00;5071002;28;21065;-71
2020/12/04 11:01:27;;;;;;;38.73;22.00;;;;;;;-144.99;86.14;52531.66;5078004;28;20622;-71
2020/12/04 11:06:38;;;;;;;46.63;22.70;;;;;;;-144.99;86.26;52505.16;5079426;28;20647;-72